Home > Products > Valid Products > TAF

000
FTUS41 KBOX 241833 AAA
TAFBOS
TAF AMD
KBOS 241833Z 2419/2524 32011KT P6SM OVC015
     FM242200 32010KT P6SM OVC030
     FM250300 31008KT P6SM BKN040
     FM250900 29006KT P6SM SCT110
     FM251900 25008KT P6SM FEW200=



000
FTUS41 KBOX 241732
TAFBDL
TAF
KBDL 241732Z 2418/2524 33010G18KT P6SM BKN030
     FM242200 32008KT P6SM BKN035
     FM250500 32004KT P6SM SCT060
     FM251900 26007KT P6SM SCT200
     FM252300 22005KT P6SM BKN090=



000
FTUS41 KBOX 241732
TAFBOS
TAF
KBOS 241732Z 2418/2524 32011KT P6SM OVC015
     FM242200 32009KT P6SM OVC030
     FM250300 31008KT P6SM BKN040
     FM250900 29006KT P6SM SCT110
     FM251900 25008KT P6SM FEW200=



000
FTUS41 KBOX 241732
TAFBAF
TAF
KBAF 241732Z 2418/2518 34010G18KT P6SM BKN030
     FM242200 33008KT P6SM BKN040
     FM250500 33004KT P6SM SCT060=



000
FTUS41 KBOX 241732
TAFORH
TAF
KORH 241732Z 2418/2518 32012KT P6SM BKN015
     FM242000 32012KT P6SM OVC030
     FM250100 31007KT P6SM BKN040
     FM250600 30007KT P6SM SCT100=



000
FTUS41 KBOX 241732
TAFMHT
TAF
KMHT 241732Z 2418/2518 32009KT P6SM OVC020
     FM242000 32009KT P6SM OVC030
     FM250000 33005KT P6SM OVC040
     FM250600 VRB03KT P6SM SCT130=



000
FTUS41 KBOX 241732
TAFACK
TAF
KACK 241732Z 2418/2518 33016KT P6SM OVC015
     FM250100 32011KT P6SM OVC025
     FM250700 32010KT P6SM BKN045
     FM250900 31009KT P6SM SCT090
     FM251600 27011KT P6SM FEW250=



000
FTUS41 KBOX 241732
TAFPVD
TAF
KPVD 241732Z 2418/2518 33010KT P6SM OVC020
     FM242200 33009KT P6SM BKN030
     FM250300 32006KT P6SM BKN045
     FM250700 32005KT P6SM SCT120=



000
FTUS41 KBOX 241513 AAA
TAFPVD
TAF AMD
KPVD 241513Z 2415/2512 32010G18KT P6SM OVC015
     FM241700 34008KT P6SM OVC025
     FM242000 33008KT P6SM BKN030
     FM250200 32007KT P6SM BKN040
     FM250700 31006KT P6SM SCT100=



000
FTUS41 KBOX 241512 AAA
TAFORH
TAF AMD
KORH 241512Z 2415/2512 32012G18KT P6SM BKN012 OVC040
     FM241800 32008KT P6SM SCT030 BKN045
     FM250100 32007KT P6SM BKN045
     FM250500 30006KT P6SM SCT070=



000
FTUS41 KBOX 241511 AAA
TAFMHT
TAF AMD
KMHT 241511Z 2415/2512 33010KT P6SM OVC025
     FM242200 33006KT P6SM OVC040
     FM250700 31004KT P6SM SCT080=



000
FTUS41 KBOX 241511 AAA
TAFBDL
TAF AMD
KBDL 241511Z 2415/2518 33010G17KT P6SM SCT015 BKN040
     FM242200 32009KT P6SM BKN040
     FM250300 32006KT P6SM SCT060=



000
FTUS41 KBOX 241510 AAA
TAFBOS
TAF AMD
KBOS 241510Z 2415/2518 33011G18KT P6SM OVC015
     FM242100 33008KT P6SM OVC025
     FM250000 31008KT P6SM BKN040
     FM250900 29007KT P6SM SCT100=



000
FTUS41 KBOX 241125
TAFACK
TAF
KACK 241125Z 2412/2512 34019G28KT P6SM OVC015
     FM241700 33016KT P6SM OVC015
     FM250600 31011KT P6SM BKN025
     FM250700 31011KT P6SM BKN040
     FM250900 31011G19KT P6SM SCT100=



000
FTUS41 KBOX 241125
TAFBOS
TAF
KBOS 241125Z 2412/2518 34011G20KT P6SM OVC015
     FM242100 33008KT P6SM OVC025
     FM250000 31008KT P6SM BKN040
     FM250900 29007KT P6SM SCT100=



000
FTUS41 KBOX 241125
TAFMHT
TAF
KMHT 241125Z 2412/2512 34008KT 6SM BR OVC025
     FM242200 33006KT P6SM OVC040
     FM250700 31004KT P6SM SCT080=



000
FTUS41 KBOX 241125
TAFBAF
TAF
KBAF 241125Z 2412/2512 34007KT 6SM -SHRA OVC040
     FM241300 34008KT P6SM OVC040
     FM241600 34010G18KT P6SM BKN035
     FM242100 34009KT P6SM BKN035
     FM250300 32006KT P6SM SCT060=



000
FTUS41 KBOX 241125
TAFPVD
TAF
KPVD 241125Z 2412/2512 33008KT P6SM OVC015
     FM241700 34008KT P6SM OVC025
     FM242000 33008KT P6SM BKN030
     FM250200 32007KT P6SM BKN040
     FM250700 31006KT P6SM SCT100=



000
FTUS41 KBOX 241125
TAFORH
TAF
KORH 241125Z 2412/2512 32012KT 6SM BR OVC030
     FM241700 32008KT P6SM SCT030 BKN045
     FM250100 32007KT P6SM BKN045
     FM250500 30006KT P6SM SCT070=



000
FTUS41 KBOX 241125
TAFBDL
TAF
KBDL 241125Z 2412/2518 33006KT P6SM -RA OVC040
     FM241400 33007KT P6SM OVC040
     FM241600 34010G18KT P6SM BKN040
     FM242200 32009KT P6SM BKN040
     FM250300 32006KT P6SM SCT060=



000
FTUS41 KBOX 240832 AAA
TAFPVD
TAF AMD
KPVD 240832Z 2409/2506 34010KT P6SM SCT008 OVC015
     FM241500 33009KT P6SM OVC025
     FM242100 33008KT P6SM BKN050=



000
FTUS41 KBOX 240832 AAA
TAFMHT
TAF AMD
KMHT 240832Z 2409/2506 34008KT 6SM -SHRA BR SCT015 OVC025
     FM241500 33007KT P6SM OVC025
     FM242100 32007KT P6SM OVC050=



000
FTUS41 KBOX 240831 AAA
TAFORH
TAF AMD
KORH 240831Z 2409/2506 32008KT P6SM VCSH SCT008 BKN015 OVC025
     FM241500 33008KT P6SM OVC015
     FM242100 32008KT P6SM BKN050
     FM250500 30006KT P6SM SCT250=



000
FTUS41 KBOX 240830 AAA
TAFBDL
TAF AMD
KBDL 240830Z 2409/2512 33007KT P6SM SCT035 OVC045
     FM242100 33009KT P6SM BKN050
     FM250300 32006KT P6SM SCT250=



000
FTUS41 KBOX 240829 AAA
TAFBOS
TAF AMD
KBOS 240829Z 2408/2512 34009KT 6SM BR VCSH OVC012
     FM241500 33010G18KT P6SM OVC015
     FM242100 32008KT P6SM OVC025
     FM250000 32008KT P6SM OVC090
     FM250900 29007KT P6SM SCT250=



000
FTUS41 KBOX 240538
TAFORH
TAF
KORH 240538Z 2406/2506 36010G17KT 6SM BR VCSH OVC009
     FM241500 33008KT P6SM OVC012
     FM242100 32008KT P6SM BKN050
     FM250500 30006KT P6SM SCT250=



000
FTUS41 KBOX 240538
TAFBOS
TAF
KBOS 240538Z 2406/2512 36013G21KT 5SM BR VCSH OVC012
     FM241500 33010G18KT P6SM OVC015
     FM242100 32008KT P6SM OVC025
     FM250000 32008KT P6SM OVC090
     FM250900 29007KT P6SM SCT250=



000
FTUS41 KBOX 240538
TAFBAF
TAF
KBAF 240538Z 2406/2506 35008KT P6SM VCSH SCT010 OVC020
     FM241500 33010KT P6SM BKN025
     FM242100 33009KT P6SM BKN050
     FM250300 32006KT P6SM SCT250=



000
FTUS41 KBOX 240538
TAFMHT
TAF
KMHT 240538Z 2406/2506 36007KT 6SM BR VCSH OVC020
     FM241500 33007KT P6SM OVC025
     FM242100 32007KT P6SM OVC050=



000
FTUS41 KBOX 240538
TAFBDL
TAF
KBDL 240538Z 2406/2512 34009KT P6SM VCSH SCT010 BKN020 OVC070
     FM241500 33010KT P6SM BKN025
     FM242100 33009KT P6SM BKN050
     FM250300 32006KT P6SM SCT250=



000
FTUS41 KBOX 240538
TAFPVD
TAF
KPVD 240538Z 2406/2506 35012G22KT P6SM VCSH SCT006 OVC012
     FM241500 33009KT P6SM OVC025
     FM242100 33008KT P6SM BKN050=



000
FTUS41 KBOX 240538
TAFACK
TAF
KACK 240538Z 2406/2506 36015G25KT 4SM BR VCSH OVC005
     FM241500 33018G27KT 5SM BR OVC015
     FM242100 32014G21KT P6SM OVC025
     FM250000 32012KT P6SM OVC050=



000
FTUS41 KBOX 240201 AAA
TAFACK
TAF AMD
KACK 240201Z 2402/2424 01012KT 2SM RA BR OVC003
     FM241200 34020G29KT P6SM OVC015
     FM241400 33019KT P6SM OVC025
     FM241700 33018KT P6SM OVC015=



000
FTUS41 KBOX 240201 AAA
TAFACK
TAF AMD
KACK 240201Z 2402/2424 01012KT 2SM RA BR OVC003
     FM241200 34020G29KT P6SM OVC015
     FM241400 33019KT P6SM OVC025
     FM241700 33018KT P6SM OVC015=



000
FTUS41 KBOX 232340
TAFMHT
TAF
KMHT 232340Z 2400/2424 01015G24KT P6SM -SHRA OVC015
     FM240200 35013G20KT 5SM -SHRA BR BKN012
     FM240300 35013G18KT 4SM -SHRA BR BKN008
     FM240600 02010G16KT 4SM -SHRA BR OVC008
     FM240800 36008KT P6SM OVC008
     FM241200 33007KT P6SM OVC015
     FM241600 32008KT P6SM OVC025
     FM241700 32008KT P6SM OVC035=



000
FTUS41 KBOX 232340
TAFBOS
TAF
KBOS 232340Z 2400/2506 01025G33KT 5SM -SHRA BR OVC010
     FM240200 01020G29KT 4SM -SHRA BR OVC008
     FM240700 36014G22KT 5SM -SHRA BR OVC008
     FM241000 34012G20KT P6SM OVC008
     FM241300 33010G17KT P6SM OVC015
     FM242000 32009KT P6SM OVC035=



000
FTUS41 KBOX 232340
TAFBDL
TAF
KBDL 232340Z 2400/2506 35014G20KT 6SM -DZ OVC015
     FM240400 34014KT P6SM BKN013
     FM240700 35009KT P6SM BKN015
     FM241500 33009KT P6SM BKN035
     FM241700 33010KT P6SM BKN030
     FM242000 33010G23KT P6SM BKN060
     FM250200 32006KT P6SM BKN090=



000
FTUS41 KBOX 232340
TAFBAF
TAF
KBAF 232340Z 2400/2424 35015G22KT P6SM -RA BKN018 OVC025
     FM240600 36008KT P6SM BKN009
     FM240800 35008KT P6SM OVC015
     FM241300 33008KT P6SM OVC025
     FM241500 33009KT P6SM OVC040
     FM241700 33010KT P6SM BKN030
     FM241900 33010G22KT P6SM BKN030
     FM242000 33009KT P6SM BKN060=



000
FTUS41 KBOX 232340
TAFPVD
TAF
KPVD 232340Z 2400/2424 36015G25KT 3SM -SHRA BKN010 OVC015
     FM240300 35015G22KT 5SM -SHRA OVC015
     FM240400 35015G22KT P6SM OVC012
     FM240600 36013G20KT P6SM BKN010
     FM240800 35012G19KT P6SM OVC015
     FM241300 33010KT P6SM OVC025
     FM241900 33009KT P6SM BKN030
     FM242000 33009KT P6SM BKN040=



000
FTUS41 KBOX 232340
TAFORH
TAF
KORH 232340Z 2400/2424 01017G24KT 2SM -SHRA BR OVC005
     FM240200 36015G25KT 1 1/2SM -SHRA BR OVC005
     FM240400 35014G22KT 2SM BR BKN004
     FM241000 34010G18KT P6SM OVC008
     FM241400 32008KT P6SM OVC015
     FM241700 32009KT P6SM OVC030
     FM242000 32008KT P6SM BKN040=



000
FTUS41 KBOX 232340
TAFACK
TAF
KACK 232340Z 2400/2424 02010KT P6SM OVC070
     FM240300 01013G20KT P6SM BKN015
     FM240600 36011G29KT P6SM OVC015
     FM241200 34020G29KT P6SM OVC015
     FM241400 33019KT P6SM OVC025
     FM241700 33018KT P6SM OVC015=



000
FTUS41 KBOX 232238 AAB
TAFORH
TAF AMD
KORH 232238Z 2323/2418 01014G22KT 3SM SHRA BR BKN005 OVC015
     FM240000 01015G25KT P6SM OVC007
     FM240200 01016G29KT P6SM OVC003
     FM241000 34010G22KT P6SM OVC008
     FM241400 32008KT P6SM OVC015
     FM241700 32009KT P6SM OVC030=



000
FTUS41 KBOX 232006 AAA
TAFMHT
TAF AMD
KMHT 232006Z 2320/2418 36015G25KT P6SM OVC015
      TEMPO 2322/2324 5SM SHRA BR OVC008
     FM240500 01011G22KT P6SM OVC008
     FM241200 33007KT P6SM OVC015
     FM241700 32008KT P6SM OVC035=



000
FTUS41 KBOX 232005 AAA
TAFPVD
TAF AMD
KPVD 232005Z 2320/2418 36018G25KT 4SM SHRA BR OVC008
     FM232300 35015G25KT P6SM OVC012
     FM241300 33010G20KT P6SM OVC025=



000
FTUS41 KBOX 232001 AAA
TAFBOS
TAF AMD
KBOS 232001Z 2320/2424 01022G36KT 4SM -SHRA BR BKN008 OVC015
     FM232300 01020G32KT 5SM BR OVC008
     FM240400 01016G29KT P6SM OVC008
     FM241200 33012G21KT P6SM OVC015
     FM241600 33012KT P6SM OVC025
     FM242000 32012KT P6SM OVC035=



000
FTUS41 KBOX 231959 AAA
TAFBDL
TAF AMD
KBDL 231959Z 2320/2424 35015G25KT P6SM OVC015
      TEMPO 2322/2324 5SM -SHRA BR OVC008
     FM240000 34012G22KT P6SM OVC012
     FM241100 33008KT P6SM OVC025
     FM241500 33009KT P6SM BKN035
     FM241700 33010G19KT P6SM BKN030
     FM242000 33010G23KT P6SM BKN060=



000
FTUS41 KBOX 231935 AAA
TAFORH
TAF AMD
KORH 231935Z 2320/2418 01014G22KT 2SM SHRA BR BKN005 OVC015
     FM232200 01015G25KT P6SM OVC007
     FM240200 01016G29KT P6SM OVC003
     FM241000 34010G22KT P6SM OVC008
     FM241400 32008KT P6SM OVC015
     FM241700 32009KT P6SM OVC030=



000
FTUS41 KBOX 231935 AAA
TAFORH
TAF AMD
KORH 231935Z 2320/2418 01014G22KT 2SM SHRA BR BKN005 OVC015
     FM232200 01015G25KT P6SM OVC007
     FM240200 01016G29KT P6SM OVC003
     FM241000 34010G22KT P6SM OVC008
     FM241400 32008KT P6SM OVC015
     FM241700 32009KT P6SM OVC030=



000
FTUS41 KBOX 231924 AAA
TAFACK
TAF AMD
KACK 231924Z 2319/2418 02012KT P6SM SCT008 BKN015
     FM240400 36010G25KT P6SM OVC015
     FM241100 34018G28KT P6SM OVC015
     FM241400 33019KT P6SM OVC025=



000
FTUS41 KBOX 231924 AAA
TAFACK
TAF AMD
KACK 231924Z 2319/2418 02012KT P6SM SCT008 BKN015
     FM240400 36010G25KT P6SM OVC015
     FM241100 34018G28KT P6SM OVC015
     FM241400 33019KT P6SM OVC025=



000
FTUS41 KBOX 231722
TAFMHT
TAF
KMHT 231722Z 2318/2418 03014G30KT P6SM OVC015
      TEMPO 2318/2320 5SM -SHRA BR OVC008
     FM240100 01010G23KT 2SM -SHRA OVC008
     FM240500 01011G22KT P6SM OVC008
     FM241200 33007KT P6SM OVC015
     FM241700 32008KT P6SM OVC035=



000
FTUS41 KBOX 231722
TAFORH
TAF
KORH 231722Z 2318/2418 02015G30KT P6SM OVC006
      TEMPO 2318/2320 3SM -SHRA BR OVC004
     FM232000 01016G32KT P6SM OVC008
     FM240100 01016G29KT P6SM OVC003
     FM241000 34010G22KT P6SM OVC008
     FM241400 32008KT P6SM OVC015
     FM241700 32009KT P6SM OVC030=



000
FTUS41 KBOX 231722
TAFBOS
TAF
KBOS 231722Z 2318/2424 02022G36KT P6SM BKN012 OVC025
      TEMPO 2318/2320 4SM SHRA BR OVC008
     FM240400 01016G29KT P6SM OVC008
     FM241200 33012G21KT P6SM OVC015
     FM241600 33012KT P6SM OVC025
     FM242000 32012KT P6SM OVC035=



000
FTUS41 KBOX 231722
TAFBAF
TAF
KBAF 231722Z 2318/2418 01018G30KT P6SM OVC015
     FM232100 01011G24KT P6SM BKN015
     FM240500 36009KT P6SM BKN010
     FM241300 33008KT P6SM OVC025
     FM241500 33010G19KT P6SM BKN030=



000
FTUS41 KBOX 231722
TAFBDL
TAF
KBDL 231722Z 2318/2424 01015G28KT P6SM OVC015
     FM240000 36009KT P6SM BKN010
     FM241100 33008KT P6SM OVC025
     FM241500 33009KT P6SM BKN035
     FM241700 33010G19KT P6SM BKN030
     FM242000 33010G23KT P6SM BKN060=



000
FTUS41 KBOX 231722
TAFPVD
TAF
KPVD 231722Z 2318/2418 01014G25KT P6SM OVC012
      TEMPO 2318/2321 5SM -SHRA OVC008
     FM232200 36011G32KT P6SM OVC015
     FM240600 36013G28KT P6SM OVC010
     FM241300 33010G20KT P6SM OVC025=



000
FTUS41 KBOX 231722
TAFACK
TAF
KACK 231722Z 2318/2418 01012KT P6SM SCT025 BKN050
      TEMPO 2318/2321 6SM -SHRA BKN025
     FM232100 08007KT P6SM BKN025
     FM240500 36010G25KT P6SM OVC015
     FM241100 34018G28KT P6SM OVC015
     FM241400 33019KT P6SM OVC025=



000
FTUS41 KBOX 231606 AAB
TAFORH
TAF AMD
KORH 231606Z 2316/2412 02021G35KT 2SM -DZ BR OVC008
     FM231900 01013G27KT 5SM -DZ BR SCT006 OVC010
     FM240700 34011G19KT 3SM BR OVC010=



000
FTUS41 KBOX 231602 AAC
TAFBOS
TAF AMD
KBOS 231602Z 2316/2418 02024G38KT P6SM OVC008
     FM231800 02023G37KT 4SM SHRA BR OVC008
     FM232000 01022G34KT 5SM -SHRA BR OVC008
     FM240200 36014G22KT 6SM BR OVC008
     FM240900 34012G20KT 6SM BR OVC010
     FM241100 33011KT 6SM BR OVC015=



000
FTUS41 KBOX 231528 AAA
TAFBAF
TAF AMD
KBAF 231528Z 2315/2412 36017G33KT 4SM RA BR BKN015 OVC025
     FM231700 36012G26KT 6SM -SHRA BR OVC012
     FM232300 35011G23KT 5SM BR BKN015 OVC050
     FM240800 33009KT 6SM BR OVC020=



000
FTUS41 KBOX 231523 AAA
TAFPVD
TAF AMD
KPVD 231523Z 2315/2412 01014G28KT 6SM -SHRA BR OVC015
     FM231600 01015G29KT 6SM -SHRA BR SCT010 OVC015
     FM231700 01014G28KT P6SM OVC012
     FM232000 01013G24KT P6SM OVC010
     FM240900 34012KT P6SM OVC015=



000
FTUS41 KBOX 231518 AAA
TAFBDL
TAF AMD
KBDL 231518Z 2315/2418 36013G24KT P6SM BKN015 OVC025
     FM231800 36013G25KT P6SM OVC020
     FM240500 34009KT P6SM OVC015
     FM241400 33008KT P6SM OVC035=



000
FTUS41 KBOX 231456 AAA
TAFACK
TAF AMD
KACK 231456Z 2315/2412 02011G22KT P6SM OVC011
     FM232000 02013KT P6SM -SHRA OVC015
     FM232200 01013G21KT P6SM -SHRA OVC010
     FM240300 36017G26KT 6SM BR OVC010=



000
FTUS41 KBOX 231456 AAA
TAFACK
TAF AMD
KACK 231456Z 2315/2412 02011G22KT P6SM OVC011
     FM232000 02013KT P6SM -SHRA OVC015
     FM232200 01013G21KT P6SM -SHRA OVC010
     FM240300 36017G26KT 6SM BR OVC010=



000
FTUS41 KBOX 231452 AAA
TAFMHT
TAF AMD
KMHT 231452Z 2315/2412 35011G22KT 2SM +RA BR SCT008 OVC012
      WS020/04045KT
     FM231700 36010G21KT 6SM -SHRA BR FEW008 OVC015
     FM240200 35010G22KT 3SM BR OVC010
     FM241000 33008KT 3SM BR OVC015=



000
FTUS41 KBOX 231452 AAA
TAFMHT
TAF AMD
KMHT 231452Z 2315/2412 35011G22KT 2SM +RA BR SCT008 OVC012
      WS020/04045KT
     FM231700 36010G21KT 6SM -SHRA BR FEW008 OVC015
     FM240200 35010G22KT 3SM BR OVC010
     FM241000 33008KT 3SM BR OVC015=



000
FTUS41 KBOX 231444 AAA
TAFORH
TAF AMD
KORH 231444Z 2315/2412 01021G35KT 3SM RA BR BKN007 OVC012
     FM231530 01020G34KT 6SM -SHRA BR OVC007
     FM231900 01013G27KT 6SM BR OVC010
     FM240700 34011G19KT 3SM BR OVC010=



000
FTUS41 KBOX 231444 AAA
TAFORH
TAF AMD
KORH 231444Z 2315/2412 01021G35KT 3SM RA BR BKN007 OVC012
     FM231530 01020G34KT 6SM -SHRA BR OVC007
     FM231900 01013G27KT 6SM BR OVC010
     FM240700 34011G19KT 3SM BR OVC010=



000
FTUS41 KBOX 231439 AAB
TAFBOS
TAF AMD
KBOS 231439Z 2315/2418 02024G38KT P6SM BKN010 OVC025
     FM232000 01022G34KT 5SM -SHRA BR OVC008
     FM240200 36014G22KT 6SM BR OVC008
     FM240900 34012G20KT 6SM BR OVC010
     FM241100 33011KT 6SM BR OVC015=



000
FTUS41 KBOX 231439 AAB
TAFBOS
TAF AMD
KBOS 231439Z 2315/2418 02024G38KT P6SM BKN010 OVC025
     FM232000 01022G34KT 5SM -SHRA BR OVC008
     FM240200 36014G22KT 6SM BR OVC008
     FM240900 34012G20KT 6SM BR OVC010
     FM241100 33011KT 6SM BR OVC015=



000
FTUS41 KBOX 231404 AAA
TAFBOS
TAF AMD
KBOS 231404Z 2314/2418 01025G38KT P6SM SCT010 BKN060
     FM231500 02025G39KT P6SM BKN008
     FM232000 01022G34KT 5SM -SHRA BR OVC008
     FM240200 36014G22KT 6SM BR OVC008
     FM240900 34012G20KT 6SM BR OVC010
     FM241100 33011KT 6SM BR OVC015=



000
FTUS41 KBOX 231126
TAFBOS
TAF
KBOS 231126Z 2312/2418 02015G28KT 3SM RA BR OVC015
     FM231600 03016G25KT 5SM -SHRA BR OVC008
     FM240200 36014G22KT 6SM BR OVC008
     FM240900 34012G20KT 6SM BR OVC010
     FM241100 33011KT 6SM BR OVC015=



000
FTUS41 KBOX 231126
TAFORH
TAF
KORH 231126Z 2312/2412 01016G29KT 5SM -SHRA BR OVC005 WS020/04040KT
     FM231400 01015G28KT 6SM -SHRA BR OVC007 WS020/04040KT
     FM231900 01013G27KT 6SM BR OVC010
     FM240700 34011G19KT 3SM BR OVC010=



000
FTUS41 KBOX 231126
TAFBAF
TAF
KBAF 231126Z 2312/2412 01013G26KT 6SM SHRA BR OVC015
     FM231600 36012G26KT 6SM -SHRA BR OVC015
     FM232300 35011G23KT 5SM BR OVC015
     FM240800 33009KT 6SM BR OVC020=



000
FTUS41 KBOX 231126
TAFBDL
TAF
KBDL 231126Z 2312/2418 36013G24KT 6SM SHRA OVC015
     FM231300 36013G24KT 6SM SHRA OVC015
     FM231800 36013G25KT P6SM OVC020
     FM240500 34009KT P6SM OVC015
     FM241400 33008KT P6SM OVC035=



000
FTUS41 KBOX 231126
TAFPVD
TAF
KPVD 231126Z 2312/2412 01014G30KT 6SM -SHRA BR OVC015
     FM231900 01013G24KT P6SM OVC010
     FM240900 34012KT P6SM OVC015=



000
FTUS41 KBOX 231126
TAFMHT
TAF
KMHT 231126Z 2312/2412 01014G27KT 5SM SHRA BR OVC015 WS020/04045KT
     FM231700 01013G24KT 6SM -SHRA BR OVC015
     FM240200 35010G22KT 3SM BR OVC010
     FM241000 33008KT 3SM BR OVC015=



000
FTUS41 KBOX 231126
TAFACK
TAF
KACK 231126Z 2312/2412 08008KT P6SM OVC150
     FM231500 05012KT 6SM -SHRA OVC010
     FM232000 04013KT P6SM -SHRA OVC015
     FM232200 03013G21KT P6SM -SHRA OVC010
     FM240300 36017G26KT 6SM BR OVC010=



000
FTUS41 KBOX 231013 AAB
TAFMHT
TAF AMD
KMHT 231013Z 2310/2406 02015G26KT 3SM +SHRA SCT007 BKN012 OVC020
      WS020/04040KT
     FM231400 01013G27KT 2SM -SHRA BR OVC008
     FM240200 35010G21KT 3SM BR OVC008=



000
FTUS41 KBOX 230925 AAA
TAFPVD
TAF AMD
KPVD 230925Z 2309/2406 01020G32KT P6SM VCSH SCT008 OVC012
     FM231500 01014G27KT 5SM -SHRA BR OVC015
     FM231900 01013G26KT P6SM OVC008
     FM240000 36014G28KT 6SM BR OVC015=



000
FTUS41 KBOX 230923 AAA
TAFACK
TAF AMD
KACK 230923Z 2309/2406 05007KT P6SM VCSH FEW006 SCT020
     FM231300 08010KT 3SM -SHRA BR OVC002
     FM231500 07010KT 3SM BR OVC008
     FM231900 05012G23KT P6SM -SHRA OVC015
     FM240300 36017G26KT 3SM BR OVC008=



000
FTUS41 KBOX 230919 AAA
TAFMHT
TAF AMD
KMHT 230919Z 2309/2406 01016KT 2SM -RA BR OVC012 WS020/04040KT
     FM231100 01014G27KT 3SM -SHRA BR VCTS OVC008CB WS020/04040KT
     FM231400 01013G27KT 2SM -SHRA BR OVC008
     FM240200 35010G21KT 3SM BR OVC008=



000
FTUS41 KBOX 230915 AAA
TAFBDL
TAF AMD
KBDL 230915Z 2309/2412 01017G23KT P6SM -SHRA SCT015 OVC025
     FM231800 36013G26KT P6SM OVC015
     FM240000 35011G23KT P6SM OVC025
     FM240300 34010G21KT 3SM BR OVC050=



000
FTUS41 KBOX 230914 AAA
TAFBOS
TAF AMD
KBOS 230914Z 2309/2412 02020G35KT 3SM SHRA BR SCT008 BKN012 OVC020
     FM231400 03017G37KT 3SM SHRA BR OVC008
     FM240300 36014G27KT 3SM BR OVC015
     FM241000 34012G19KT 6SM BR OVC015=



000
FTUS41 KBOX 230543
TAFBDL
TAF
KBDL 230543Z 2306/2412 36014G21KT P6SM -SHRA BKN013 OVC025
      WS020/04040KT
     FM230900 01015G26KT 3SM SHRA BR OVC015
     FM231800 36013G26KT P6SM OVC015
     FM240000 35011G23KT P6SM OVC025
     FM240300 34010G21KT 3SM BR OVC050=



000
FTUS41 KBOX 230543
TAFBOS
TAF
KBOS 230543Z 2306/2412 03032G40KT 2SM +SHRA BR VCTS OVC010CB
     FM230900 03021G42KT 3SM +SHRA BR OVC008
     FM231400 03017G37KT 3SM SHRA BR OVC008
     FM240300 36014G27KT 3SM BR OVC015
     FM241000 34012G19KT 6SM BR OVC015=



000
FTUS41 KBOX 230543
TAFMHT
TAF
KMHT 230543Z 2306/2406 01013G23KT P6SM -DZ OVC013
     FM230730 01014G28KT 3SM +SHRA BR VCTS OVC008CB WS020/04040KT
     FM231300 01014G27KT 3SM -SHRA BR OVC008 WS020/04040KT
     FM231600 01013G27KT 2SM -SHRA BR OVC008
     FM240200 35010G21KT 3SM BR OVC008=



000
FTUS41 KBOX 230543
TAFACK
TAF
KACK 230543Z 2306/2406 07007KT 6SM BR VCSH BKN002 BKN100
     FM231000 08010KT 3SM -SHRA BR OVC002
     FM231500 07010KT 3SM BR OVC008
     FM231900 05012G23KT P6SM -SHRA OVC015
     FM240300 36017G26KT 3SM BR OVC008=



000
FTUS41 KBOX 230543
TAFPVD
TAF
KPVD 230543Z 2306/2406 01019G28KT P6SM VCSH SCT006 BKN012 OVC030
     FM231500 01014G27KT 5SM -SHRA BR OVC015
     FM231900 01013G26KT P6SM OVC008
     FM240000 36014G28KT 6SM BR OVC015=



000
FTUS41 KBOX 230543
TAFORH
TAF
KORH 230543Z 2306/2406 02015G25KT 2SM +SHRA BR VCTS OVC005CB
      WS020/04045KT
     FM230900 01016G29KT 3SM -SHRA BR OVC005
     FM231500 02015G30KT 5SM -SHRA BR OVC008
     FM231900 01013G27KT P6SM OVC008
     FM240000 36012G25KT 6SM BR OVC015
     FM240300 35012G23KT 6SM BR OVC025=



000
FTUS41 KBOX 230543
TAFBAF
TAF
KBAF 230543Z 2306/2406 01017G24KT P6SM -SHRA BKN015 OVC035
      WS020/04040KT
     FM230900 01014G27KT 3SM SHRA BR OVC015
     FM231800 36012G25KT P6SM OVC015
     FM232200 35011G24KT 6SM BR OVC015=



000
FTUS41 KBOX 230304 AAA
TAFMHT
TAF AMD
KMHT 230304Z 2303/2324 02017G26KT 5SM SHRA OVC012
     FM231000 01015G25KT 1SM +RA BR OVC003
     FM231200 01015G24KT 1SM -RA BR OVC008
     FM231500 36014G31KT 3SM -RA BR OVC010
     FM231700 36014G23KT 3SM -SHRA BR OVC010=



000
FTUS41 KBOX 230303 AAA
TAFBAF
TAF AMD
KBAF 230303Z 2303/2324 02017G23KT 5SM SHRA BR OVC012
     FM230600 01015KT 1SM +RA BR OVC008
     FM231100 01013G23KT 2SM -SHRA BR OVC015
     FM231500 36012G21KT 3SM -SHRA BR OVC020
     FM231800 36012G19KT P6SM -SHRA OVC015
     FM232000 36011G18KT P6SM OVC015=



000
FTUS41 KBOX 230221 AAB
TAFBOS
TAF AMD
KBOS 230221Z 2302/2406 03032G45KT 2SM SHRA BR VCTS BKN009 OVC013CB
     FM230300 03025G40KT 3SM SHRA BR OVC008
     FM231400 02018G32KT 3SM -RA BR OVC010
     FM240000 36014G22KT 6SM -SHRA OVC015
     FM240300 36016KT 6SM -SHRA OVC010
     FM240500 35015KT P6SM OVC010=



000
FTUS41 KBOX 230221 AAB
TAFBOS
TAF AMD
KBOS 230221Z 2302/2406 03032G45KT 2SM SHRA BR VCTS BKN009 OVC013CB
     FM230300 03025G40KT 3SM SHRA BR OVC008
     FM231400 02018G32KT 3SM -RA BR OVC010
     FM240000 36014G22KT 6SM -SHRA OVC015
     FM240300 36016KT 6SM -SHRA OVC010
     FM240500 35015KT P6SM OVC010=



000
FTUS41 KBOX 230124 AAA
TAFBOS
TAF AMD
KBOS 230124Z 2301/2406 03028G41KT 4SM TSRA BR BKN009 OVC014CB
     FM230215 03025G40KT 3SM RA BR OVC008
     FM231400 02018G32KT 3SM -RA BR OVC010
     FM240000 36014G22KT 6SM -SHRA OVC015
     FM240300 36016KT 6SM -SHRA OVC010
     FM240500 35015KT P6SM OVC010=



000
FTUS41 KBOX 230124 AAA
TAFBOS
TAF AMD
KBOS 230124Z 2301/2406 03028G41KT 4SM TSRA BR BKN009 OVC014CB
     FM230215 03025G40KT 3SM RA BR OVC008
     FM231400 02018G32KT 3SM -RA BR OVC010
     FM240000 36014G22KT 6SM -SHRA OVC015
     FM240300 36016KT 6SM -SHRA OVC010
     FM240500 35015KT P6SM OVC010=



000
FTUS41 KBOX 222338
TAFMHT
TAF
KMHT 222338Z 2300/2324 03014G24KT 2SM RA BR SCT006 OVC012
     FM230300 02015G23KT 1SM +RA BR OVC003
     FM231000 01015G25KT 1SM +RA BR OVC003
     FM231200 01015G24KT 1SM -RA BR OVC008
     FM231500 36014G31KT 3SM -RA BR OVC010
     FM231700 36014G23KT 3SM -SHRA BR OVC010=



000
FTUS41 KBOX 222338
TAFBDL
TAF
KBDL 222338Z 2300/2406 01018G28KT 3SM +RA BR SCT008 OVC015
     FM230700 36013G32KT 3SM +RA BR SCT006 OVC012
     FM231200 36013G22KT 3SM -SHRA BR OVC015
     FM232000 35012G19KT P6SM OVC010
     FM232100 35012KT P6SM OVC020
     FM240000 34011KT 3SM BR OVC010
     FM240300 34009KT P6SM OVC015=



000
FTUS41 KBOX 222338
TAFORH
TAF
KORH 222338Z 2300/2324 03012G27KT 2SM RA BR OVC004 WS020/04040KT
     FM230200 02018G26KT 1SM +RA BR OVC003
     FM231000 02015G27KT 1SM -RA BR OVC003
     FM231500 01011G28KT 2SM -RA BR OVC008
     FM231800 36011G22KT 3SM -SHRA BR OVC010=



000
FTUS41 KBOX 222338
TAFACK
TAF
KACK 222338Z 2300/2324 05020G35KT 5SM -RA BR OVC003
     FM230500 07011G24KT 2SM +RA BR OVC003
     FM231000 09009KT 2SM -RA BR OVC003
     FM231500 09008KT 3SM BR OVC010
     FM231700 06009KT 3SM -SHRA BR OVC010
     FM232000 02011KT 3SM -SHRA BR OVC008=



000
FTUS41 KBOX 222338
TAFPVD
TAF
KPVD 222338Z 2300/2324 01018G28KT 2SM +RA BR OVC008
     FM231000 02011KT 2SM -RA BR OVC008
     FM231500 02010G23KT 3SM -SHRA BR OVC010=



000
FTUS41 KBOX 222338
TAFBAF
TAF
KBAF 222338Z 2300/2324 02013G21KT 2SM RA BR OVC008
     FM230600 01015KT 1SM +RA BR OVC008
     FM231100 01013G23KT 2SM -SHRA BR OVC015
     FM231500 36012G21KT 3SM -SHRA BR OVC020
     FM231800 36012G19KT P6SM -SHRA OVC015
     FM232000 36011G18KT P6SM OVC015=



000
FTUS41 KBOX 222338
TAFBOS
TAF
KBOS 222338Z 2300/2406 04030G45KT 2SM RA BR OVC008
     FM230400 03025G40KT 1SM +RA BR OVC008
     FM231400 02018G32KT 3SM -RA BR OVC010
     FM240000 36014G22KT 6SM -SHRA OVC015
     FM240300 36016KT 6SM -SHRA OVC010
     FM240500 35015KT P6SM OVC010=



000
FTUS41 KBOX 222229 AAC
TAFBOS
TAF AMD
KBOS 222229Z 2222/2324 02030G40KT 1SM -SHRA BR OVC008
     FM230000 02025G40KT 1SM -RA BR OVC008
     FM230300 02019G40KT 2SM +RA BR OVC008 WS020/04050KT
     FM231000 02019G37KT 3SM SHRA OVC008
     FM231800 02015G26KT 3SM -SHRA OVC010=



000
FTUS41 KBOX 222153 AAB
TAFPVD
TAF AMD
KPVD 222153Z 2222/2318 02020G35KT 3SM +RA BR OVC012
     FM231000 01013G25KT 3SM -SHRA OVC008=



000
FTUS41 KBOX 222152 AAB
TAFBOS
TAF AMD
KBOS 222152Z 2222/2324 02030G40KT 1SM -SHRA BR OVC008
     FM230000 02025G40KT 1SM +RA BR OVC008
     FM230300 02019G40KT 2SM +RA BR OVC008 WS020/04050KT
     FM231000 02019G37KT 3SM SHRA OVC008
     FM231800 02015G26KT 3SM -SHRA OVC010=



000
FTUS41 KBOX 222044 AAA
TAFBAF
TAF AMD
KBAF 222044Z 2221/2318 01015G22KT 5SM -SHRA OVC015
     FM222200 01013G23KT 3SM SHRA BR OVC015
     FM231000 36015KT 3SM -SHRA OVC015=



000
FTUS41 KBOX 222043 AAA
TAFPVD
TAF AMD
KPVD 222043Z 2221/2318 02014G25KT 3SM +RA BR OVC012
     FM231000 01013G25KT 3SM -SHRA OVC008=



000
FTUS41 KBOX 222041 AAA
TAFMHT
TAF AMD
KMHT 222041Z 2221/2318 36014G25KT 5SM -RA BR OVC015
     FM230000 36014G25KT 3SM +RA BR OVC008
     FM231000 36015G32KT 3SM -SHRA OVC008=



000
FTUS41 KBOX 222039 AAA
TAFBDL
TAF AMD
KBDL 222039Z 2221/2324 36015G25KT 3SM RA OVC015
     FM231000 36014KT 3SM -SHRA OVC015
     FM232000 35012KT P6SM OVC010
     FM232100 35012KT P6SM OVC020=



000
FTUS41 KBOX 222039 AAA
TAFBDL
TAF AMD
KBDL 222039Z 2221/2324 36015G25KT 3SM RA OVC015
     FM231000 36014KT 3SM -SHRA OVC015
     FM232000 35012KT P6SM OVC010
     FM232100 35012KT P6SM OVC020=



000
FTUS41 KBOX 222038 AAA
TAFBOS
TAF AMD
KBOS 222038Z 2221/2324 02018G34KT 3SM -SHRA BR OVC008
     FM230000 02017G33KT 2SM +RA BR OVC008
     FM230300 02019G40KT 2SM +RA BR OVC008 WS020/04050KT
     FM231000 02019G37KT 3SM SHRA OVC008
     FM231800 02015G26KT 3SM -SHRA OVC010=



000
FTUS41 KBOX 222038 AAA
TAFBOS
TAF AMD
KBOS 222038Z 2221/2324 02018G34KT 3SM -SHRA BR OVC008
     FM230000 02017G33KT 2SM +RA BR OVC008
     FM230300 02019G40KT 2SM +RA BR OVC008 WS020/04050KT
     FM231000 02019G37KT 3SM SHRA OVC008
     FM231800 02015G26KT 3SM -SHRA OVC010=



000
FTUS41 KBOX 221731
TAFBDL
TAF
KBDL 221731Z 2218/2324 01016KT 6SM -SHRA OVC020
     FM222100 36015G25KT 3SM RA OVC015
     FM231000 36014KT 3SM -SHRA OVC015
     FM232000 35012KT P6SM OVC010
     FM232100 35012KT P6SM OVC020=



000
FTUS41 KBOX 221731
TAFBOS
TAF
KBOS 221731Z 2218/2324 02018G34KT 3SM -SHRA BR OVC008
     FM230000 02017G33KT 2SM +RA BR OVC008
     FM230300 02019G40KT 2SM +RA BR OVC008 WS020/04050KT
     FM231000 02019G37KT 3SM SHRA OVC008
     FM231800 02015G26KT 3SM -SHRA OVC010=



000
FTUS41 KBOX 221731
TAFORH
TAF
KORH 221731Z 2218/2318 03013G28KT 3SM -SHRA BR OVC003
     FM222200 02012G25KT 2SM RA BR OVC003
     FM231000 01016G28KT 2SM -SHRA OVC003
     FM231500 01011G24KT 3SM -SHRA OVC008=



000
FTUS41 KBOX 221731
TAFMHT
TAF
KMHT 221731Z 2218/2318 01015G28KT 3SM -SHRA BR OVC010
     FM221930 36014G25KT 2SM -RA BR OVC008
     FM230000 36014G25KT 3SM +RA BR OVC008
     FM231000 36015G32KT 3SM -SHRA OVC008=



000
FTUS41 KBOX 221731
TAFBAF
TAF
KBAF 221731Z 2218/2318 01015KT 6SM -SHRA OVC020
     FM222200 01013G23KT 3SM SHRA BR OVC015
     FM231000 36015KT 3SM -SHRA OVC015=



000
FTUS41 KBOX 221731
TAFPVD
TAF
KPVD 221731Z 2218/2318 02013G27KT 5SM -SHRA BR OVC010
     FM222100 02014G25KT 3SM +RA BR OVC008
     FM231000 01013G25KT 3SM -SHRA OVC008=



000
FTUS41 KBOX 221731
TAFACK
TAF
KACK 221731Z 2218/2318 04015G30KT 2SM -SHRA OVC005
     FM222200 04014G22KT 3SM +RA BR OVC003
     FM231000 08010KT 3SM -SHRA OVC003
     FM231200 09009KT 3SM -SHRA OVC008=



000
FTUS41 KBOX 221731
TAFBDL
TAF
KBDL 221731Z 2218/2324 01016KT 6SM -SHRA OVC020
     FM222100 36015G25KT 3SM RA OVC015
     FM231000 36014KT 3SM -SHRA OVC015
     FM232000 35012KT P6SM OVC010
     FM232100 35012KT P6SM OVC020=



000
FTUS41 KBOX 221731
TAFBAF
TAF
KBAF 221731Z 2218/2318 01015KT 6SM -SHRA OVC020
     FM222200 01013G23KT 3SM SHRA BR OVC015
     FM231000 36015KT 3SM -SHRA OVC015=



000
FTUS41 KBOX 221731
TAFBOS
TAF
KBOS 221731Z 2218/2324 02018G34KT 3SM -SHRA BR OVC008
     FM230000 02017G33KT 2SM +RA BR OVC008
     FM230300 02019G40KT 2SM +RA BR OVC008 WS020/04050KT
     FM231000 02019G37KT 3SM SHRA OVC008
     FM231800 02015G26KT 3SM -SHRA OVC010=



000
FTUS41 KBOX 221731
TAFACK
TAF
KACK 221731Z 2218/2318 04015G30KT 2SM -SHRA OVC005
     FM222200 04014G22KT 3SM +RA BR OVC003
     FM231000 08010KT 3SM -SHRA OVC003
     FM231200 09009KT 3SM -SHRA OVC008=



000
FTUS41 KBOX 221731
TAFMHT
TAF
KMHT 221731Z 2218/2318 01015G28KT 3SM -SHRA BR OVC010
     FM221930 36014G25KT 2SM -RA BR OVC008
     FM230000 36014G25KT 3SM +RA BR OVC008
     FM231000 36015G32KT 3SM -SHRA OVC008=



000
FTUS41 KBOX 221731
TAFORH
TAF
KORH 221731Z 2218/2318 03013G28KT 3SM -SHRA BR OVC003
     FM222200 02012G25KT 2SM RA BR OVC003
     FM231000 01016G28KT 2SM -SHRA OVC003
     FM231500 01011G24KT 3SM -SHRA OVC008=



000
FTUS41 KBOX 221731
TAFPVD
TAF
KPVD 221731Z 2218/2318 02013G27KT 5SM -SHRA BR OVC010
     FM222100 02014G25KT 3SM +RA BR OVC008
     FM231000 01013G25KT 3SM -SHRA OVC008=



000
FTUS41 KBOX 221411 AAA
TAFBOS
TAF AMD
KBOS 221411Z 2214/2318 03019G29KT 3SM -DZ BR OVC011
     FM221500 03018G30KT 3SM -SHRA BR OVC006
     FM230100 03018G28KT 3SM +SHRA BR OVC008
     FM230500 04016KT 3SM SHRA BR OVC008
     FM231100 03013KT 3SM SHRA BR OVC008=



000
FTUS41 KBOX 221409 AAA
TAFACK
TAF AMD
KACK 221409Z 2214/2312 03014G24KT 5SM BR OVC004
     FM221600 04013G25KT 4SM -SHRA BR OVC004
     FM222100 06015KT 5SM -SHRA BR OVC008
     FM230000 07014KT 3SM SHRA BR OVC008
     FM230600 12008KT 3SM -SHRA BR OVC003
     FM230900 12007KT 3SM -SHRA BR OVC008=



000
FTUS41 KBOX 221406 AAA
TAFPVD
TAF AMD
KPVD 221406Z 2214/2312 03015G27KT P6SM SCT008 OVC012
     FM221700 02014G27KT 3SM -SHRA BR OVC007
     FM230000 01016G26KT 3SM SHRA BR OVC008
     FM230100 01015KT 3SM SHRA BR OVC008
     FM230800 03009KT 3SM -SHRA BR OVC008=



000
FTUS41 KBOX 221403 AAA
TAFMHT
TAF AMD
KMHT 221403Z 2214/2312 01012G21KT 3SM -RA BR OVC008
     FM222200 02014G23KT 3SM SHRA BR OVC008
     FM230000 02015G24KT 2SM SHRA BR OVC010
     FM230100 02015KT 2SM +SHRA BR OVC010=



000
FTUS41 KBOX 221402 AAA
TAFBAF
TAF AMD
KBAF 221402Z 2214/2312 01011G18KT P6SM OVC015
     FM221600 01011G19KT 6SM -SHRA BR OVC015
     FM222200 01012G20KT 3SM -SHRA BR OVC015=



000
FTUS41 KBOX 221120
TAFPVD
TAF
KPVD 221120Z 2212/2312 01010KT 6SM -SHRA BR OVC006
     FM221500 02012G25KT 5SM -SHRA BR OVC008
     FM230000 01016G26KT 3SM SHRA BR OVC008
     FM230100 01015KT 3SM SHRA BR OVC008
     FM230800 03009KT 3SM -SHRA BR OVC008=



000
FTUS41 KBOX 221120
TAFORH
TAF
KORH 221120Z 2212/2312 02010KT 5SM -SHRA BR OVC002
     FM221900 02013KT 5SM -SHRA BR OVC005
     FM230000 02015KT 2SM SHRA BR OVC002
     FM230600 03015KT 2SM SHRA BR OVC008
     FM231100 02013KT 2SM -SHRA BR OVC015 WS020/05045KT=



000
FTUS41 KBOX 221120
TAFBDL
TAF
KBDL 221120Z 2212/2318 01012G20KT P6SM OVC015
     FM221500 01010G18KT 6SM -SHRA BR OVC010
     FM222200 36013G24KT 3SM -SHRA BR OVC015
     FM230500 01013KT 3SM -SHRA BR OVC010=



000
FTUS41 KBOX 221120
TAFBOS
TAF
KBOS 221120Z 2212/2318 04012G22KT 3SM -SHRA BR OVC005
     FM221500 03014G25KT 3SM -SHRA BR OVC006
     FM230100 03018G28KT 3SM +SHRA BR OVC008
     FM230500 04016KT 3SM SHRA BR OVC008
     FM231100 03013KT 3SM SHRA BR OVC008=



000
FTUS41 KBOX 221120
TAFACK
TAF
KACK 221120Z 2212/2312 03012G20KT P6SM BKN008
     FM221700 04013G25KT P6SM SCT008 OVC015
     FM222100 06015KT 5SM -SHRA BR OVC008
     FM230000 07014KT 3SM SHRA BR OVC008
     FM230600 12008KT 3SM -SHRA BR OVC003
     FM230900 12007KT 3SM -SHRA BR OVC008=



000
FTUS41 KBOX 221120
TAFMHT
TAF
KMHT 221120Z 2212/2312 02010G18KT 3SM -SHRA BR OVC008
     FM221500 02012G21KT 5SM BR OVC008
     FM222200 02014G23KT 3SM SHRA BR OVC008
     FM230000 02015G24KT 2SM SHRA BR OVC010
     FM230100 02015KT 2SM +SHRA BR OVC010=



000
FTUS41 KBOX 221120
TAFBAF
TAF
KBAF 221120Z 2212/2312 02008KT P6SM OVC015
     FM221500 01011G19KT 6SM -SHRA BR OVC015
     FM222200 01012G20KT 3SM -SHRA BR OVC015=



000
FTUS41 KBOX 220845 AAB
TAFPVD
TAF AMD
KPVD 220845Z 2209/2306 02012KT P6SM OVC005
     FM221900 02014KT 3SM -SHRA BR OVC015
     FM230000 01016KT 1SM SHRA BR OVC008=



000
FTUS41 KBOX 220844 AAB
TAFORH
TAF AMD
KORH 220844Z 2209/2306 02009G18KT 1/2SM FG VV002
     FM221900 02014KT 3SM -SHRA BR OVC015
     FM230000 02015KT 2SM SHRA BR OVC003 WS020/04045KT=



000
FTUS41 KBOX 220844 AAA
TAFMHT
TAF AMD
KMHT 220844Z 2209/2306 02007KT P6SM VCSH SCT007 OVC010
     FM221900 02014KT 2SM -SHRA BR OVC015
     FM230000 02015KT 2SM SHRA BR OVC008
     FM230300 02015KT 2SM +SHRA BR OVC003 WS020/05045KT=



000
FTUS41 KBOX 220843 AAA
TAFBDL
TAF AMD
KBDL 220843Z 2209/2312 01011KT P6SM BKN010 OVC021
     FM221200 01009KT 6SM BR OVC008
     FM221800 01012KT 5SM BR OVC015
     FM222100 01013KT 3SM -SHRA BR OVC015
     FM230000 01013KT 3SM -SHRA BR OVC008=



000
FTUS41 KBOX 220843 AAA
TAFBAF
TAF AMD
KBAF 220843Z 2209/2306 02006KT P6SM OVC010
     FM221800 01012KT 5SM BR OVC015
     FM222000 01012KT 3SM -SHRA BR OVC015
     FM230000 01013KT 3SM -SHRA BR OVC008=



000
FTUS41 KBOX 220842 AAA
TAFBOS
TAF AMD
KBOS 220842Z 2209/2312 36012KT P6SM VCSH OVC005
     FM221100 02013KT 4SM BR VCSH OVC004
     FM221900 03017KT 2SM -SHRA BR OVC015
     FM230000 03018G27KT 2SM +SHRA BR OVC008
     FM230300 03017KT 1SM +SHRA BR OVC003=



000
FTUS41 KBOX 220737 AAA
TAFACK
TAF AMD
KACK 220737Z 2208/2306 01008KT 6SM BR BKN002
     FM221600 04009KT 6SM -SHRA BR SCT002 OVC015
     FM230000 07014G22KT 2SM -SHRA BR OVC008 WS020/12035KT
     FM230400 11010KT 2SM -SHRA BR OVC008=



000
FTUS41 KBOX 220735 AAA
TAFPVD
TAF AMD
KPVD 220735Z 2208/2306 02011KT 6SM BR OVC005
     FM220900 02010KT 3SM BR OVC008
     FM221900 02014KT 3SM -SHRA BR OVC015
     FM230000 01016KT 1SM SHRA BR OVC008=



000
FTUS41 KBOX 220735 AAA
TAFORH
TAF AMD
KORH 220735Z 2208/2306 02009KT 1/4SM FG VV002
     FM221900 02014KT 3SM -SHRA BR OVC015
     FM230000 02015KT 2SM SHRA BR OVC003 WS020/04045KT=



000
FTUS41 KBOX 220542
TAFORH
TAF
KORH 220542Z 2206/2306 05006KT 2SM BR OVC002
     FM221900 02014KT 3SM -SHRA BR OVC015
     FM230000 02015KT 2SM SHRA BR OVC003 WS020/04045KT=



000
FTUS41 KBOX 220542
TAFPVD
TAF
KPVD 220542Z 2206/2306 02008KT 6SM BR OVC008
     FM220900 02010KT 3SM BR OVC008
     FM221900 02014KT 3SM -SHRA BR OVC015
     FM230000 01016KT 1SM SHRA BR OVC008=



000
FTUS41 KBOX 220542
TAFBOS
TAF
KBOS 220542Z 2206/2312 35009KT 6SM BR OVC004
     FM221100 02013KT 3SM BR OVC004
     FM221900 03017KT 2SM -SHRA BR OVC015
     FM230000 03018G27KT 2SM +SHRA BR OVC008
     FM230300 03017KT 1SM +SHRA BR OVC003=



000
FTUS41 KBOX 220542
TAFBAF
TAF
KBAF 220542Z 2206/2306 01011KT P6SM VCSH OVC010
     FM220900 02008KT 5SM BR OVC008
     FM221800 01012KT 5SM BR OVC015
     FM222000 01012KT 3SM -SHRA BR OVC015
     FM230000 01013KT 3SM -SHRA BR OVC008=



000
FTUS41 KBOX 220542
TAFMHT
TAF
KMHT 220542Z 2206/2306 35009KT P6SM OVC010
     FM220900 02010KT 5SM BR OVC008
     FM221900 02014KT 2SM -SHRA BR OVC015
     FM230000 02015KT 2SM SHRA BR OVC008
     FM230300 02015KT 2SM +SHRA BR OVC003 WS020/05045KT=



000
FTUS41 KBOX 220542
TAFBDL
TAF
KBDL 220542Z 2206/2312 02010KT P6SM VCSH OVC012
     FM221200 01009KT 6SM BR OVC008
     FM221800 01012KT 5SM BR OVC015
     FM222100 01013KT 3SM -SHRA BR OVC015
     FM230000 01013KT 3SM -SHRA BR OVC008=



000
FTUS41 KBOX 220542
TAFACK
TAF
KACK 220542Z 2206/2306 05004KT P6SM SCT005
     FM220900 02011KT P6SM BKN015
     FM221600 04009KT 6SM -SHRA BR OVC015
     FM230000 07014G22KT 2SM -SHRA BR OVC008 WS020/12035KT
     FM230400 11010KT 2SM -SHRA BR OVC008=



000
FTUS41 KBOX 220542
TAFORH
TAF
KORH 220542Z 2206/2306 05006KT 2SM BR OVC002
     FM221900 02014KT 3SM -SHRA BR OVC015
     FM230000 02015KT 2SM SHRA BR OVC003 WS020/04045KT=



000
FTUS41 KBOX 220542
TAFBAF
TAF
KBAF 220542Z 2206/2306 01011KT P6SM VCSH OVC010
     FM220900 02008KT 5SM BR OVC008
     FM221800 01012KT 5SM BR OVC015
     FM222000 01012KT 3SM -SHRA BR OVC015
     FM230000 01013KT 3SM -SHRA BR OVC008=



000
FTUS41 KBOX 220542
TAFPVD
TAF
KPVD 220542Z 2206/2306 02008KT 6SM BR OVC008
     FM220900 02010KT 3SM BR OVC008
     FM221900 02014KT 3SM -SHRA BR OVC015
     FM230000 01016KT 1SM SHRA BR OVC008=



000
FTUS41 KBOX 220542
TAFBOS
TAF
KBOS 220542Z 2206/2312 35009KT 6SM BR OVC004
     FM221100 02013KT 3SM BR OVC004
     FM221900 03017KT 2SM -SHRA BR OVC015
     FM230000 03018G27KT 2SM +SHRA BR OVC008
     FM230300 03017KT 1SM +SHRA BR OVC003=



000
FTUS41 KBOX 220542
TAFMHT
TAF
KMHT 220542Z 2206/2306 35009KT P6SM OVC010
     FM220900 02010KT 5SM BR OVC008
     FM221900 02014KT 2SM -SHRA BR OVC015
     FM230000 02015KT 2SM SHRA BR OVC008
     FM230300 02015KT 2SM +SHRA BR OVC003 WS020/05045KT=



000
FTUS41 KBOX 220542
TAFACK
TAF
KACK 220542Z 2206/2306 05004KT P6SM SCT005
     FM220900 02011KT P6SM BKN015
     FM221600 04009KT 6SM -SHRA BR OVC015
     FM230000 07014G22KT 2SM -SHRA BR OVC008 WS020/12035KT
     FM230400 11010KT 2SM -SHRA BR OVC008=



000
FTUS41 KBOX 220542
TAFBDL
TAF
KBDL 220542Z 2206/2312 02010KT P6SM VCSH OVC012
     FM221200 01009KT 6SM BR OVC008
     FM221800 01012KT 5SM BR OVC015
     FM222100 01013KT 3SM -SHRA BR OVC015
     FM230000 01013KT 3SM -SHRA BR OVC008=



000
FTUS41 KBOX 212320
TAFBDL
TAF
KBDL 212320Z 2200/2306 01006KT P6SM OVC050
     FM220400 01005KT 5SM BR OVC025
     FM220600 01006KT 6SM BR OVC008
     FM221700 36010G17KT P6SM -SHRA OVC008
     FM222200 36010G20KT 6SM RA OVC015
     FM230000 36011G20KT 3SM RA BR OVC025=



000
FTUS41 KBOX 212320
TAFMHT
TAF
KMHT 212320Z 2200/2224 03008KT P6SM OVC008
     FM220300 02006KT 3SM BR OVC015
     FM220600 01008KT 3SM -RADZ BR OVC003
     FM221800 36011G18KT 2SM -RADZ BR OVC008
     FM222200 01010G20KT 2SM RA BR OVC008=



000
FTUS41 KBOX 212320
TAFBAF
TAF
KBAF 212320Z 2200/2224 02006KT P6SM OVC050
     FM220400 01006KT 3SM BR OVC025
     FM220600 01007KT 3SM BR OVC008
     FM221500 01009KT 3SM -SHRA BR OVC008
     FM222200 36010G19KT 3SM RA BR OVC015=



000
FTUS41 KBOX 212320
TAFPVD
TAF
KPVD 212320Z 2200/2224 03004KT P6SM BKN040
     FM220300 03004KT P6SM OVC025
     FM220600 02006KT 3SM -DZ BR OVC008
     FM221300 02009KT 3SM -RADZ BR OVC008
     FM222200 02011G22KT 3SM RA BR OVC015=



000
FTUS41 KBOX 212320
TAFACK
TAF
KACK 212320Z 2200/2224 12009KT P6SM FEW005
     FM220600 02008KT 3SM -DZ BR OVC003
     FM221500 04009KT 6SM -RADZ BR OVC003
     FM222200 05011G26KT P6SM +RA OVC008=



000
FTUS41 KBOX 212320
TAFORH
TAF
KORH 212320Z 2200/2224 05004KT P6SM OVC006
     FM220300 03004KT 6SM BR OVC008
     FM220600 02006KT 3SM -RADZ BR OVC008
     FM222200 01009KT 3SM RA BR OVC008=



000
FTUS41 KBOX 212320
TAFBOS
TAF
KBOS 212320Z 2200/2306 04005KT P6SM OVC012
     FM220300 03007KT 6SM BR OVC008
     FM220500 03008KT 3SM -SHRA BR OVC008
     FM221800 02012G23KT 2SM -RADZ BR OVC008
     FM222200 02012G25KT 2SM RA BR OVC008
     FM230000 03014G26KT 2SM +RA BR OVC008=



000
FTUS41 KBOX 212320
TAFACK
TAF
KACK 212320Z 2200/2224 12009KT P6SM FEW005
     FM220600 02008KT 3SM -DZ BR OVC003
     FM221500 04009KT 6SM -RADZ BR OVC003
     FM222200 05011G26KT P6SM +RA OVC008=



000
FTUS41 KBOX 212320
TAFBAF
TAF
KBAF 212320Z 2200/2224 02006KT P6SM OVC050
     FM220400 01006KT 3SM BR OVC025
     FM220600 01007KT 3SM BR OVC008
     FM221500 01009KT 3SM -SHRA BR OVC008
     FM222200 36010G19KT 3SM RA BR OVC015=



000
FTUS41 KBOX 212320
TAFPVD
TAF
KPVD 212320Z 2200/2224 03004KT P6SM BKN040
     FM220300 03004KT P6SM OVC025
     FM220600 02006KT 3SM -DZ BR OVC008
     FM221300 02009KT 3SM -RADZ BR OVC008
     FM222200 02011G22KT 3SM RA BR OVC015=



000
FTUS41 KBOX 212320
TAFMHT
TAF
KMHT 212320Z 2200/2224 03008KT P6SM OVC008
     FM220300 02006KT 3SM BR OVC015
     FM220600 01008KT 3SM -RADZ BR OVC003
     FM221800 36011G18KT 2SM -RADZ BR OVC008
     FM222200 01010G20KT 2SM RA BR OVC008=



000
FTUS41 KBOX 212320
TAFBDL
TAF
KBDL 212320Z 2200/2306 01006KT P6SM OVC050
     FM220400 01005KT 5SM BR OVC025
     FM220600 01006KT 6SM BR OVC008
     FM221700 36010G17KT P6SM -SHRA OVC008
     FM222200 36010G20KT 6SM RA OVC015
     FM230000 36011G20KT 3SM RA BR OVC025=



000
FTUS41 KBOX 212320
TAFORH
TAF
KORH 212320Z 2200/2224 05004KT P6SM OVC006
     FM220300 03004KT 6SM BR OVC008
     FM220600 02006KT 3SM -RADZ BR OVC008
     FM222200 01009KT 3SM RA BR OVC008=



000
FTUS41 KBOX 212320
TAFBOS
TAF
KBOS 212320Z 2200/2306 04005KT P6SM OVC012
     FM220300 03007KT 6SM BR OVC008
     FM220500 03008KT 3SM -SHRA BR OVC008
     FM221800 02012G23KT 2SM -RADZ BR OVC008
     FM222200 02012G25KT 2SM RA BR OVC008
     FM230000 03014G26KT 2SM +RA BR OVC008=



000
FTUS41 KBOX 212222 AAB
TAFBOS
TAF AMD
KBOS 212222Z 2122/2224 02009KT P6SM FEW007 SCT015
     FM212300 04007KT P6SM BKN008
     FM220600 02009KT 3SM -SHRA BR OVC008
     FM221800 02012G23KT 3SM -SHRA BR OVC008
     FM222000 02011G24KT 3SM -RA BR OVC008
     FM222200 02012G25KT 3SM RA BR OVC008=



000
FTUS41 KBOX 212222 AAB
TAFBOS
TAF AMD
KBOS 212222Z 2122/2224 02009KT P6SM FEW007 SCT015
     FM212300 04007KT P6SM BKN008
     FM220600 02009KT 3SM -SHRA BR OVC008
     FM221800 02012G23KT 3SM -SHRA BR OVC008
     FM222000 02011G24KT 3SM -RA BR OVC008
     FM222200 02012G25KT 3SM RA BR OVC008=



000
FTUS41 KBOX 212037 AAA
TAFMHT
TAF AMD
KMHT 212037Z 2121/2218 02007KT P6SM BKN012
     FM220000 01005KT P6SM OVC008
     FM220600 01006KT 3SM BR OVC003
     FM220900 01006KT 2SM -SHRA BR OVC003
     FM221500 36010KT 2SM -SHRA BR OVC003=



000
FTUS41 KBOX 212035 AAA
TAFPVD
TAF AMD
KPVD 212035Z 2121/2218 16007KT P6SM SCT025
     FM212230 11005KT P6SM SCT025 BKN040
     FM220000 05004KT P6SM BKN020
     FM220600 02006KT 3SM BR OVC008
     FM221400 02010KT 3SM BR OVC008=



000
FTUS41 KBOX 212034 AAA
TAFBDL
TAF AMD
KBDL 212034Z 2121/2224 01005KT P6SM SCT035 BKN050
     FM220300 02004KT P6SM OVC015
     FM220600 01006KT 6SM BR OVC008
     FM221600 36010KT P6SM OVC008
     FM222100 36010G19KT 6SM -RA OVC015
     FM222200 36010G19KT 6SM RA OVC015=



000
FTUS41 KBOX 212032 AAA
TAFBOS
TAF AMD
KBOS 212032Z 2121/2224 08009KT P6SM SCT015
     FM220200 04007KT P6SM BKN015
     FM220600 02009KT 3SM -SHRA BR OVC008
     FM221800 02012G23KT 3SM -SHRA BR OVC008
     FM222000 02011G24KT 3SM -RA BR OVC008
     FM222200 02012G25KT 3SM RA BR OVC008=



    US Dept of Commerce
    National Oceanic and Atmospheric Administration
    National Weather Service
    1325 East West Highway
    Silver Spring, MD 20910
    Page Author: NWS Internet Services Team
Disclaimer
Information Quality
Credits
Glossary
Privacy Policy
Freedom of Information Act (FOIA)
About Us
Career Opportunities